createdAt,value
2022-09-30T00:01:03.008Z,8.50
2022-09-30T00:03:36.477Z,7.87
2022-09-30T00:06:09.226Z,9.03
2022-09-30T00:08:41.444Z,9.90
2022-09-30T00:11:19.499Z,9.50
2022-09-30T00:13:52.229Z,9.57
2022-09-30T00:16:25.618Z,10.63
2022-09-30T00:18:58.751Z,11.23
2022-09-30T00:21:30.791Z,10.37
2022-09-30T00:24:04.375Z,10.67
2022-09-30T00:26:36.544Z,10.10
2022-09-30T00:29:10.095Z,10.80
2022-09-30T00:31:42.502Z,10.70
2022-09-30T00:34:14.417Z,10.30
2022-09-30T00:36:49.052Z,12.00
2022-09-30T00:39:28.989Z,9.57
2022-09-30T00:42:03.515Z,11.50
2022-09-30T00:44:55.292Z,12.97
2022-09-30T00:47:35.974Z,11.57
2022-09-30T00:50:25.584Z,11.00
2022-09-30T00:53:23.718Z,11.43
2022-09-30T00:56:08.380Z,12.47
2022-09-30T00:58:48.172Z,12.70
2022-09-30T01:01:21.140Z,12.67
2022-09-30T01:04:16.926Z,12.80
2022-09-30T01:06:49.795Z,12.67
2022-09-30T01:09:22.013Z,14.23
2022-09-30T01:11:54.120Z,13.77
2022-09-30T01:14:27.336Z,16.53
2022-09-30T01:17:14.940Z,13.60
2022-09-30T01:20:11.842Z,13.30
2022-09-30T01:22:51.356Z,13.03
2022-09-30T01:25:38.906Z,15.47
2022-09-30T01:28:13.683Z,14.33
2022-09-30T01:31:04.021Z,14.00
2022-09-30T01:33:45.987Z,15.37
2022-09-30T01:36:32.569Z,13.17
2022-09-30T01:39:16.636Z,13.00
2022-09-30T01:41:55.505Z,19.17
2022-09-30T01:44:49.781Z,16.57
2022-09-30T01:47:26.928Z,17.83
2022-09-30T01:50:06.237Z,13.40
2022-09-30T01:52:53.518Z,15.30
2022-09-30T01:55:31.246Z,14.50
2022-09-30T01:58:18.760Z,16.60
2022-09-30T02:00:53.648Z,15.90
2022-09-30T02:03:39.878Z,20.13
2022-09-30T02:06:20.901Z,17.67
2022-09-30T02:09:03.349Z,14.73
2022-09-30T02:11:37.088Z,16.80
2022-09-30T02:14:08.886Z,16.13
2022-09-30T02:16:43.572Z,15.80
2022-09-30T02:19:18.148Z,15.83
2022-09-30T02:21:57.328Z,16.77
2022-09-30T02:24:37.128Z,17.80
2022-09-30T02:27:12.638Z,21.13
2022-09-30T02:29:49.769Z,14.83
2022-09-30T02:32:31.082Z,16.60
2022-09-30T02:35:08.522Z,16.50
2022-09-30T02:37:46.385Z,15.17
2022-09-30T02:40:31.867Z,14.80
2022-09-30T02:43:05.120Z,14.23
2022-09-30T02:46:13.425Z,15.90
2022-09-30T02:49:11.664Z,14.03
2022-09-30T02:51:58.344Z,17.47
2022-09-30T02:54:30.141Z,14.47
2022-09-30T02:57:34.426Z,13.63
2022-09-30T03:00:11.943Z,13.37
2022-09-30T03:02:46.640Z,14.93
2022-09-30T03:05:18.558Z,13.90
2022-09-30T03:07:50.704Z,18.27
2022-09-30T03:10:22.852Z,14.00
2022-09-30T03:13:12.707Z,14.97
2022-09-30T03:16:10.856Z,15.17
2022-09-30T03:19:26.843Z,13.20
2022-09-30T03:22:26.266Z,14.37
2022-09-30T03:25:19.711Z,15.20
2022-09-30T03:28:11.699Z,15.50
2022-09-30T03:31:06.707Z,17.17
2022-09-30T03:34:02.601Z,14.00
2022-09-30T03:36:36.874Z,19.30
2022-09-30T03:39:23.910Z,15.30
2022-09-30T03:42:07.971Z,15.43
2022-09-30T03:45:03.172Z,15.20
2022-09-30T03:47:40.904Z,14.27
2022-09-30T03:50:18.876Z,20.93
2022-09-30T03:52:51.084Z,16.80
2022-09-30T03:55:24.074Z,14.07
2022-09-30T03:57:57.704Z,15.30
2022-09-30T04:00:30.177Z,14.03
2022-09-30T04:03:02.041Z,17.10
2022-09-30T04:05:33.974Z,18.87
2022-09-30T04:08:05.919Z,17.03
2022-09-30T04:10:40.752Z,16.50
2022-09-30T04:13:12.952Z,16.97
2022-09-30T04:15:44.753Z,22.50
2022-09-30T04:18:16.764Z,20.93
2022-09-30T04:20:48.882Z,23.20
2022-09-30T04:23:20.978Z,21.30
2022-09-30T04:25:55.627Z,20.43
2022-09-30T04:28:27.571Z,21.43
2022-09-30T04:31:01.093Z,25.77
2022-09-30T04:33:33.593Z,27.70
2022-09-30T04:36:06.180Z,27.50
2022-09-30T04:38:38.020Z,27.37
2022-09-30T04:41:16.115Z,24.17
2022-09-30T04:43:48.529Z,24.57
2022-09-30T04:46:22.580Z,24.57
2022-09-30T04:48:54.395Z,25.20
2022-09-30T04:51:27.324Z,32.60
2022-09-30T04:53:59.178Z,25.27
2022-09-30T04:56:31.046Z,29.60
2022-09-30T04:59:02.879Z,27.73
2022-09-30T05:01:35.413Z,22.93
2022-09-30T05:04:08.228Z,19.60
2022-09-30T05:06:40.886Z,24.20
2022-09-30T05:09:12.949Z,19.67
2022-09-30T05:11:44.834Z,21.33
2022-09-30T05:14:16.757Z,18.60
2022-09-30T05:16:48.568Z,20.70
2022-09-30T05:19:20.587Z,21.83
2022-09-30T05:21:52.507Z,18.07
2022-09-30T05:24:24.558Z,20.17
2022-09-30T05:26:56.489Z,20.07
2022-09-30T05:29:28.268Z,20.97
2022-09-30T05:32:00.245Z,20.93
2022-09-30T05:34:32.353Z,20.17
2022-09-30T05:37:04.221Z,23.30
2022-09-30T05:39:36.699Z,18.83
2022-09-30T05:42:13.272Z,24.70
2022-09-30T05:44:46.353Z,21.00
2022-09-30T05:47:18.309Z,23.60
2022-09-30T05:49:53.068Z,23.07
2022-09-30T05:52:28.505Z,23.07
2022-09-30T05:55:01.787Z,20.83
2022-09-30T05:57:33.660Z,24.27
2022-09-30T06:00:06.543Z,21.77
2022-09-30T06:18:41.448Z,20.93
2022-09-30T06:21:15.655Z,22.00
2022-09-30T06:23:47.632Z,20.43
2022-09-30T06:26:19.595Z,22.37
2022-09-30T06:28:51.842Z,20.10
2022-09-30T06:31:23.790Z,17.90
2022-09-30T06:33:57.163Z,20.20
2022-09-30T06:36:29.346Z,17.20
2022-09-30T06:39:01.881Z,22.13
2022-09-30T06:41:39.825Z,18.87
2022-09-30T06:44:12.857Z,22.93
2022-09-30T06:46:53.280Z,20.90
2022-09-30T06:49:30.773Z,23.43
2022-09-30T06:52:12.992Z,18.57
2022-09-30T06:54:44.904Z,17.90
2022-09-30T06:57:22.288Z,21.53
2022-09-30T06:59:54.565Z,20.77
2022-09-30T07:02:26.686Z,20.93
2022-09-30T07:04:58.650Z,20.80
2022-09-30T07:07:33.537Z,16.80
2022-09-30T07:10:05.977Z,19.93
2022-09-30T07:12:37.961Z,17.30
2022-09-30T07:15:13.575Z,18.57
2022-09-30T07:17:51.084Z,17.63
2022-09-30T07:20:23.532Z,17.43
2022-09-30T07:22:55.630Z,18.30
2022-09-30T07:25:27.891Z,15.37
2022-09-30T07:27:59.837Z,16.03
2022-09-30T07:30:31.723Z,16.43
2022-09-30T07:33:04.127Z,18.60
2022-09-30T07:35:36.614Z,18.03
2022-09-30T07:38:08.992Z,19.63
2022-09-30T07:40:42.657Z,18.00
2022-09-30T07:43:19.058Z,15.93
2022-09-30T07:45:51.532Z,20.30
2022-09-30T07:48:39.574Z,23.13
2022-09-30T07:51:33.402Z,15.93
2022-09-30T07:54:07.764Z,17.00
2022-09-30T07:57:08.224Z,15.30
2022-09-30T07:59:35.831Z,17.93
2022-09-30T08:02:15.797Z,16.97
2022-09-30T08:04:47.686Z,18.97
2022-09-30T08:07:19.919Z,18.07
2022-09-30T08:09:51.798Z,16.80
2022-09-30T08:12:23.625Z,12.13
2022-09-30T08:14:55.770Z,15.07
2022-09-30T08:17:27.631Z,17.00
2022-09-30T08:19:59.757Z,13.00
2022-09-30T08:22:31.568Z,13.57
2022-09-30T08:25:03.881Z,11.13
2022-09-30T08:27:36.058Z,11.83
2022-09-30T08:30:08.851Z,13.90
2022-09-30T08:32:40.753Z,10.90
2022-09-30T08:35:12.539Z,10.57
2022-09-30T08:37:44.387Z,10.33
2022-09-30T08:40:22.777Z,12.53
2022-09-30T08:43:31.938Z,18.13
2022-09-30T08:46:47.005Z,15.10
2022-09-30T08:49:21.596Z,13.07
2022-09-30T08:51:54.042Z,8.37
2022-09-30T08:54:30.627Z,13.17
2022-09-30T08:57:03.932Z,11.67
2022-09-30T08:59:41.190Z,9.23
2022-09-30T09:02:17.741Z,12.60
2022-09-30T09:04:52.160Z,9.00
2022-09-30T09:07:52.186Z,10.30
2022-09-30T09:10:45.595Z,8.03
2022-09-30T09:13:44.490Z,13.07
2022-09-30T09:16:33.065Z,6.60
2022-09-30T09:19:15.458Z,9.83
2022-09-30T09:21:52.519Z,8.87
2022-09-30T09:24:45.194Z,9.13
2022-09-30T09:27:19.374Z,7.23
2022-09-30T09:30:12.571Z,6.50
2022-09-30T09:32:50.114Z,7.03
2022-09-30T09:35:31.445Z,7.90
2022-09-30T09:38:26.000Z,7.63
2022-09-30T09:41:12.983Z,4.97
2022-09-30T09:43:58.274Z,6.70
2022-09-30T09:46:42.129Z,6.20
2022-09-30T09:49:13.887Z,6.67
2022-09-30T09:52:14.722Z,6.07
2022-09-30T09:54:50.885Z,7.53
2022-09-30T09:57:28.015Z,7.97
2022-09-30T10:00:21.294Z,6.70
2022-09-30T10:03:18.885Z,8.20
2022-09-30T10:06:10.779Z,7.77
2022-09-30T10:08:56.634Z,8.37
2022-09-30T10:11:29.259Z,11.67
2022-09-30T10:14:01.389Z,9.57
2022-09-30T10:16:37.817Z,9.40
2022-09-30T10:19:21.461Z,7.10
2022-09-30T10:22:08.188Z,6.37
2022-09-30T10:24:40.502Z,5.93
2022-09-30T10:27:40.670Z,5.77
2022-09-30T10:30:12.655Z,8.10
2022-09-30T10:32:44.672Z,7.50
2022-09-30T10:35:21.803Z,10.17
2022-09-30T10:37:54.620Z,6.70
2022-09-30T10:40:29.145Z,8.67
2022-09-30T10:43:00.989Z,6.83
2022-09-30T10:45:36.694Z,6.53
2022-09-30T10:48:17.574Z,6.13
2022-09-30T10:50:51.759Z,6.60
2022-09-30T10:53:29.794Z,4.33
2022-09-30T10:56:05.341Z,4.80
2022-09-30T10:58:43.397Z,3.90
2022-09-30T11:01:22.832Z,4.10
2022-09-30T11:04:22.206Z,6.70
2022-09-30T11:07:30.503Z,4.93
2022-09-30T11:10:21.906Z,5.17
2022-09-30T11:13:12.055Z,4.13
2022-09-30T11:16:20.577Z,3.53
2022-09-30T11:19:09.006Z,3.83
2022-09-30T11:21:49.455Z,4.03
2022-09-30T11:24:24.850Z,3.20
2022-09-30T11:27:10.489Z,5.87
2022-09-30T11:29:53.926Z,3.43
2022-09-30T11:32:31.503Z,4.80
2022-09-30T11:35:14.987Z,5.13
2022-09-30T11:38:18.570Z,3.00
2022-09-30T11:41:15.771Z,3.07
2022-09-30T11:44:09.105Z,4.17
2022-09-30T11:46:53.363Z,2.87
2022-09-30T11:49:44.104Z,3.23
2022-09-30T11:52:28.332Z,4.07
2022-09-30T11:55:23.532Z,4.40
2022-09-30T11:58:22.354Z,3.67
2022-09-30T12:01:05.773Z,6.43
2022-09-30T12:03:42.637Z,4.70
2022-09-30T12:06:36.511Z,5.17
2022-09-30T12:09:15.996Z,6.63
2022-09-30T12:11:56.267Z,4.30
2022-09-30T12:14:31.311Z,4.57
2022-09-30T12:17:07.121Z,7.97
2022-09-30T12:19:46.929Z,5.10
2022-09-30T12:22:40.321Z,7.30
2022-09-30T12:25:21.675Z,10.93
2022-09-30T12:27:55.688Z,8.40
2022-09-30T12:30:29.173Z,6.80
2022-09-30T12:33:22.220Z,9.40
2022-09-30T12:36:07.336Z,8.20
2022-09-30T12:38:48.175Z,7.80
2022-09-30T12:41:26.724Z,7.20
2022-09-30T12:44:36.322Z,10.23
2022-09-30T12:47:34.643Z,7.30
2022-09-30T12:50:08.722Z,6.87
2022-09-30T12:52:40.833Z,6.60
2022-09-30T12:55:28.100Z,9.00
2022-09-30T12:58:01.735Z,6.57
2022-09-30T13:00:34.972Z,12.23
2022-09-30T13:03:15.283Z,8.10
2022-09-30T13:05:52.837Z,7.30
2022-09-30T13:08:33.585Z,6.60
2022-09-30T13:11:06.443Z,7.60
2022-09-30T13:13:59.439Z,5.97
2022-09-30T13:17:01.294Z,5.60
2022-09-30T13:19:59.318Z,5.50
2022-09-30T13:22:31.380Z,6.60
2022-09-30T13:25:10.735Z,5.80
2022-09-30T13:27:55.330Z,7.67
2022-09-30T13:30:32.219Z,6.30
2022-09-30T13:33:26.285Z,10.13
2022-09-30T13:36:06.441Z,10.23
2022-09-30T13:38:40.626Z,5.93
2022-09-30T13:41:24.435Z,10.47
2022-09-30T13:44:02.358Z,6.57
2022-09-30T13:46:43.405Z,6.53
2022-09-30T13:49:25.699Z,8.60
2022-09-30T13:51:57.711Z,6.30
2022-09-30T13:54:34.121Z,7.70
2022-09-30T13:57:08.306Z,6.70
2022-09-30T14:00:01.341Z,6.93
2022-09-30T14:03:07.180Z,8.80
2022-09-30T14:06:02.916Z,7.30
2022-09-30T14:08:43.251Z,7.10
2022-09-30T14:11:25.548Z,8.30
2022-09-30T14:14:12.545Z,9.90
2022-09-30T14:17:00.906Z,8.63
2022-09-30T14:19:42.401Z,8.17
2022-09-30T14:22:15.170Z,8.30
2022-09-30T14:24:50.278Z,10.43
2022-09-30T14:27:31.552Z,9.80
2022-09-30T14:30:23.943Z,9.40
2022-09-30T14:33:04.278Z,8.80
2022-09-30T14:35:37.694Z,9.30
2022-09-30T14:38:19.350Z,12.70
2022-09-30T14:40:53.310Z,9.37
2022-09-30T14:43:37.773Z,10.20
2022-09-30T14:46:35.988Z,10.27
2022-09-30T14:49:13.775Z,9.90
2022-09-30T14:51:47.126Z,12.47
2022-09-30T14:54:22.715Z,13.63
2022-09-30T14:56:55.595Z,10.37
2022-09-30T14:59:33.220Z,9.80
2022-09-30T15:02:16.898Z,11.70
2022-09-30T15:04:53.185Z,12.23
2022-09-30T15:07:25.964Z,11.57
2022-09-30T15:10:01.326Z,11.10
2022-09-30T15:12:36.844Z,8.87
2022-09-30T15:15:35.179Z,12.40
2022-09-30T15:18:43.266Z,14.60
2022-09-30T15:21:16.176Z,9.60
2022-09-30T15:23:53.335Z,9.67
2022-09-30T15:26:26.942Z,14.60
2022-09-30T15:28:58.973Z,10.60
2022-09-30T15:31:32.251Z,10.30
2022-09-30T15:34:06.322Z,10.63
2022-09-30T15:36:38.653Z,10.43
2022-09-30T15:39:22.958Z,10.00
2022-09-30T15:41:54.953Z,10.40
2022-09-30T15:44:39.494Z,10.07
2022-09-30T15:47:11.559Z,10.83
2022-09-30T15:49:49.865Z,11.63
2022-09-30T15:52:39.640Z,10.53
2022-09-30T15:55:38.217Z,11.47
2022-09-30T15:58:38.044Z,10.93
2022-09-30T16:01:21.570Z,12.83
2022-09-30T16:03:59.139Z,11.73
2022-09-30T16:06:46.115Z,12.47
2022-09-30T16:09:18.593Z,11.13
2022-09-30T16:12:05.945Z,12.20
2022-09-30T16:14:49.354Z,10.80
2022-09-30T16:17:27.970Z,12.10
2022-09-30T16:20:01.878Z,12.13
2022-09-30T16:22:42.855Z,12.00
2022-09-30T16:25:33.663Z,10.73
2022-09-30T16:28:13.987Z,11.87
2022-09-30T16:30:47.802Z,10.27
2022-09-30T16:33:19.767Z,10.93
2022-09-30T16:35:51.856Z,11.37
2022-09-30T16:38:23.835Z,11.57
2022-09-30T16:40:56.482Z,12.33
2022-09-30T16:43:28.492Z,12.53
2022-09-30T16:46:01.091Z,10.83
2022-09-30T16:48:35.082Z,10.67
2022-09-30T16:51:13.729Z,10.83
2022-09-30T16:53:47.880Z,10.43
2022-09-30T16:56:20.772Z,8.90
2022-09-30T16:58:52.741Z,8.60
2022-09-30T17:01:26.127Z,14.30
2022-09-30T17:03:58.526Z,10.23
2022-09-30T17:06:32.065Z,10.67
2022-09-30T17:09:05.139Z,10.60
2022-09-30T17:11:38.333Z,11.17
2022-09-30T17:14:10.460Z,12.33
2022-09-30T17:16:42.429Z,12.00
2022-09-30T17:19:14.620Z,12.97
2022-09-30T17:21:46.477Z,12.07
2022-09-30T17:24:18.334Z,13.53
2022-09-30T17:26:50.855Z,13.60
2022-09-30T17:29:32.395Z,11.37
2022-09-30T17:32:04.974Z,11.57
2022-09-30T17:34:36.913Z,13.20
2022-09-30T17:37:08.839Z,12.53
2022-09-30T17:39:40.820Z,13.23
2022-09-30T17:42:34.593Z,12.27
2022-09-30T17:45:06.920Z,10.90
2022-09-30T17:47:41.389Z,14.53
2022-09-30T17:50:14.370Z,12.03
2022-09-30T17:52:46.428Z,11.37
2022-09-30T17:55:18.540Z,12.17
2022-09-30T17:57:51.439Z,10.63
2022-09-30T18:00:23.697Z,12.67
2022-09-30T18:02:55.706Z,13.80
2022-09-30T18:05:27.815Z,10.13
2022-09-30T18:08:00.098Z,14.93
2022-09-30T18:10:32.511Z,12.57
2022-09-30T18:13:04.977Z,12.13
2022-09-30T18:15:38.835Z,14.27
2022-09-30T18:18:11.026Z,13.67
2022-09-30T18:20:44.887Z,15.20
2022-09-30T18:23:19.009Z,15.53
2022-09-30T18:25:52.031Z,17.20
2022-09-30T18:28:24.025Z,20.83
2022-09-30T18:30:55.928Z,17.57
2022-09-30T18:33:28.004Z,25.70
2022-09-30T18:36:00.953Z,19.60
2022-09-30T18:38:35.759Z,19.30
2022-09-30T18:41:07.580Z,15.20
2022-09-30T18:43:40.029Z,13.60
2022-09-30T18:46:13.955Z,16.83
2022-09-30T18:48:49.976Z,15.40
2022-09-30T18:51:23.286Z,14.73
2022-09-30T18:53:57.817Z,15.10
2022-09-30T18:56:32.094Z,13.90
2022-09-30T18:59:05.132Z,13.37
2022-09-30T19:01:37.657Z,12.37
2022-09-30T19:04:11.011Z,17.93
2022-09-30T19:06:44.378Z,12.27
2022-09-30T19:09:16.648Z,16.17
2022-09-30T19:11:49.998Z,13.23
2022-09-30T19:14:23.820Z,11.70
2022-09-30T19:16:56.448Z,14.23
2022-09-30T19:19:29.481Z,13.63
2022-09-30T19:22:02.974Z,14.10
2022-09-30T19:24:35.918Z,12.93
2022-09-30T19:27:07.841Z,12.67
2022-09-30T19:29:40.591Z,11.37
2022-09-30T19:32:12.895Z,11.73
2022-09-30T19:34:53.223Z,13.13
2022-09-30T19:37:31.774Z,13.00
2022-09-30T19:40:18.930Z,10.63
2022-09-30T19:42:55.900Z,11.40
2022-09-30T19:45:28.433Z,11.50
2022-09-30T19:48:00.978Z,9.87
2022-09-30T19:50:34.728Z,11.23
2022-09-30T19:53:07.023Z,11.30
2022-09-30T19:55:48.781Z,12.20
2022-09-30T19:58:22.386Z,9.80
2022-09-30T20:00:56.206Z,11.87
2022-09-30T20:03:30.644Z,11.00
2022-09-30T20:06:09.101Z,11.33
2022-09-30T20:08:42.799Z,11.10
2022-09-30T20:11:17.081Z,10.60
2022-09-30T20:13:51.089Z,9.73
2022-09-30T20:16:23.707Z,9.80
2022-09-30T20:18:55.775Z,10.40
2022-09-30T20:21:28.017Z,12.03
2022-09-30T20:24:01.762Z,10.17
2022-09-30T20:26:34.294Z,9.53
2022-09-30T20:29:08.866Z,9.20
2022-09-30T20:31:42.424Z,9.50
2022-09-30T20:34:16.247Z,10.33
2022-09-30T20:36:48.464Z,10.90
2022-09-30T20:39:20.419Z,13.53
2022-09-30T20:41:52.306Z,13.83
2022-09-30T20:44:24.284Z,10.00
2022-09-30T20:46:57.882Z,9.80
2022-09-30T20:49:30.021Z,10.33
2022-09-30T20:52:03.972Z,10.77
2022-09-30T20:54:35.903Z,9.67
2022-09-30T20:57:08.241Z,10.57
2022-09-30T20:59:40.402Z,14.87
2022-09-30T21:02:14.027Z,13.43
2022-09-30T21:04:49.518Z,10.83
2022-09-30T21:07:25.314Z,12.90
2022-09-30T21:09:57.465Z,10.77
2022-09-30T21:12:30.981Z,9.93
2022-09-30T21:15:03.302Z,9.47
2022-09-30T21:17:35.239Z,11.23
2022-09-30T21:20:07.707Z,11.03
2022-09-30T21:22:39.856Z,13.50
2022-09-30T21:25:13.048Z,10.70
2022-09-30T21:27:46.593Z,12.00
2022-09-30T21:30:19.234Z,10.20
2022-09-30T21:32:51.322Z,12.70
2022-09-30T21:35:23.286Z,11.73
2022-09-30T21:37:55.314Z,12.67
2022-09-30T21:40:28.267Z,10.53
2022-09-30T21:43:00.273Z,12.10
2022-09-30T21:45:32.140Z,9.53
2022-09-30T21:48:06.223Z,10.03
2022-09-30T21:50:38.207Z,10.73
2022-09-30T21:53:10.277Z,12.33
2022-09-30T21:55:43.149Z,11.13
2022-09-30T21:58:15.711Z,12.23
2022-09-30T22:00:47.703Z,10.50
2022-09-30T22:03:21.275Z,10.03
2022-09-30T22:05:54.007Z,10.90
2022-09-30T22:08:26.552Z,10.40
2022-09-30T22:10:58.416Z,11.37
2022-09-30T22:13:31.464Z,11.20
2022-09-30T22:16:09.537Z,11.03
2022-09-30T22:18:42.601Z,11.57
2022-09-30T22:21:15.001Z,11.20
2022-09-30T22:23:47.786Z,15.03
2022-09-30T22:26:22.378Z,12.40
2022-09-30T22:28:57.094Z,16.20
2022-09-30T22:31:31.110Z,11.20
2022-09-30T22:34:23.971Z,12.47
2022-09-30T22:37:14.595Z,10.80
2022-09-30T22:39:46.481Z,10.90
2022-09-30T22:42:18.320Z,10.80
2022-09-30T22:44:50.421Z,9.40
2022-09-30T22:47:22.392Z,26.93
2022-09-30T22:49:54.469Z,10.17
2022-09-30T22:52:26.449Z,11.77
2022-09-30T22:54:58.305Z,11.73
2022-09-30T22:57:31.098Z,12.20
2022-09-30T23:00:03.403Z,9.70
2022-09-30T23:02:35.516Z,9.00
2022-09-30T23:05:08.001Z,12.50
2022-09-30T23:07:40.806Z,10.77
2022-09-30T23:10:12.802Z,10.43
2022-09-30T23:12:46.091Z,12.10
2022-09-30T23:15:18.213Z,10.47
2022-09-30T23:17:50.153Z,8.87
2022-09-30T23:20:22.086Z,8.67
2022-09-30T23:22:54.090Z,9.57
2022-09-30T23:25:26.109Z,8.33
2022-09-30T23:27:58.021Z,8.83
2022-09-30T23:30:30.064Z,11.60
2022-09-30T23:33:02.049Z,8.37
2022-09-30T23:35:33.902Z,13.20
2022-09-30T23:38:05.792Z,8.53
2022-09-30T23:40:46.115Z,8.43
2022-09-30T23:43:19.175Z,7.80
2022-09-30T23:45:51.113Z,9.50
2022-09-30T23:48:23.387Z,9.83
2022-09-30T23:50:55.326Z,9.20
2022-09-30T23:53:27.645Z,7.37
2022-09-30T23:56:04.529Z,8.30
2022-09-30T23:58:36.993Z,7.20
